Key West, FL

3:37 PM EDT on August 03, 2015 (GMT -0400)
Key West Botanical Garden | | Change Station
CLOSE
Current Station
Personal Weather Station
Location: Key West, FL
Elevation: 10 ft
Nearby Weather Stations

Elev 10 ft 24.57 °N, 81.75 °W | Updated 1 second ago

Mostly Cloudy
Mostly Cloudy
93.0 °F
Feels Like 107 °F
N
0.0
Wind Variable Wind from SW
Gusts 0.0 mph

Today
High -- | Low -- °F
--% Chance of Precip.
Yesterday
High -- | Low -- °F
Precip. -- in
6:55 AM 8:09 PM
Waning Gibbous, 84% visible
Pressure 29.99 in
Visibility 10.0 miles
Clouds Clear
Heat Index 107 °F
Dew Point 77 °F
Humidity 59%
Rainfall 0.00 in
Snow Depth Not available.
UV 4.0 out of 12
Pollen 4.00 out of 12
Air Quality Not available.
Flu Activity Not available.
METAR KEYW 031853Z 18007KT 10SM CLR 31/23 A2999 RMK AO2 SLP155 T03110233

More Conditions Fewer Conditions

Pressure 29.99 in
Visibility 10.0 miles
Clouds Clear
Heat Index 107 °F
Dew Point 77 °F
Humidity 59%
Rainfall 0.00 in
Snow Depth Not available.
UV 4.0 out of 12
Pollen 4.00 out of 12
Air Quality Not available.
Flu Activity Not available.
METAR KEYW 031853Z 18007KT 10SM CLR 31/23 A2999 RMK AO2 SLP155 T03110233

More Conditions Fewer Conditions

Nowcast | as of 2:23 PM EDT on August 3, 2015

Through 400 PM...showers and thunderstorms will continue to develop across the waters north and south of the Florida Keys. These showers...moving north northwest at 5 knots...will cause reductions to visibility to around 4 miles in areas of moderate to heavy rainfall...brief gusty winds...and occasional lightning. These have been observed over Hawk Channel and will cross the islands and move toward Bayside waters through the rest of the afternoon.

×

10-Day Weather Forecast

×

Almanac

Astronomy

Aug. 03, 2015 Rise Set
Actual Time
Civil Twilight
Nautical Twilight
Astronomical Twilight
Moon
Length of Visible Light
Length of Day
Tomorrow will be .
, % of the Moon is Illuminated

Today's Extremes

State Highs State Lows

Community

WunderPhotos

Upload Photos

1,843,714 photos uploaded!

WunderBlogs® & News

Nearby

Air Quality

  Air Quality AQ Index Pollutant
Not available.

Snow Depth

Station Depth Elevation

Earthquake Activity

City Distance Mag. Time & Date
Minimum magnitude displayed is 2.5.

Coastal Water Temperatures

Place Temperature

Stations

Nearby Weather Stations

Station Location Temp. Windchill Dew Point Humidity Wind Precip. Elev Updated Type